Spirit Of Oceanus — C6PJ8 — position and weather

sailwx.info

Track history (hours):
 
Tides and Currents Weather Stations Pressure Air Temp Water Temp Dewpoint Dewpoint Depression Visibility Wind Speed Wind Dir Waves Ship Positions

Spirit Of Oceanus

Last reported at 2015-May-25 05:21 UTC. Time now 2015-May-25 15:39 UTC.
Position N 61°03' W 004°45'.

Type: Passenger vessel. MMSI: 309224000.

Date/timePositionNaut miles runAvg speedWind from/ knotsBaromVisibWave heightAir tempDewpointWater temp
2015-May-25 05:21N 61°03' W 004°45'911.6
2015-May-25 04:33N 60°57' W 004°31'1312.1
2015-May-25 03:30N 60°48' W 004°12'118 5.1
2015-May-24 04:14N 59°03' W 002°27'1 0.3
2015-May-24 01:27N 59°04' W 002°27'1 0.5
2015-May-23 22:33N 59°03' W 002°28'7 7.1
2015-May-23 21:33N 59°00' W 002°41'6 6.0
2015-May-23 20:33N 59°01' W 002°52'3 3.1
2015-May-23 19:31N 58°59' W 002°58'0 0.0
2015-May-23 18:31N 58°59' W 002°58'0 0.0
2015-May-23 17:31N 58°59' W 002°58'0 0.0
2015-May-23 16:31N 58°59' W 002°58'0 0.0
2015-May-23 15:31N 58°59' W 002°58'0 0.0
2015-May-23 14:31N 58°59' W 002°58'0 0.0
2015-May-23 13:31N 58°59' W 002°58'0 0.0
2015-May-23 12:34N 58°59' W 002°58'1 0.7
2015-May-23 11:31N 59°00' W 002°58'9 9.5
2015-May-23 10:33N 58°60' W 002°40'8213.6
2015-May-23 04:33N 57°45' W 001°36'1312.8
2015-May-23 03:33N 57°32' W 001°36'1312.9
2015-May-23 02:33N 57°20' W 001°35'153 4.0
2015-May-21 12:20N 54°55' W 000°02'8 9.0
2015-May-21 11:30N 54°50' E 000°08'8 8.8
2015-May-21 10:34N 54°45' E 000°19'9 8.7
2015-May-21 09:33N 54°39' E 000°30'9 8.6
2015-May-21 08:32N 54°34' E 000°42'8 8.4
2015-May-21 07:33N 54°28' E 000°52'16011.4
2015-May-20 17:29N 52°31' E 003°56'1111.9
2015-May-20 16:33N 52°31' E 004°14'10 9.9
2015-May-20 15:34N 52°28' E 004°30'3 3.1
2015-May-20 14:31N 52°28' E 004°35'0 0.0
2015-May-20 13:25N 52°28' E 004°35'0 0.0
2015-May-20 12:31N 52°28' E 004°35'0 0.0
2015-May-20 11:25N 52°28' E 004°35'0 0.0
2015-May-20 10:31N 52°28' E 004°35'0 0.0
2015-May-20 09:31N 52°28' E 004°35'0 0.0
2015-May-20 08:28N 52°28' E 004°35'0 0.0
2015-May-20 07:31N 52°28' E 004°35'0 0.0
2015-May-20 06:31N 52°28' E 004°35'0 0.0
2015-May-20 05:28N 52°28' E 004°35'0 0.0
2015-May-20 04:31N 52°28' E 004°35'0 0.0
2015-May-20 03:31N 52°28' E 004°35'0 0.0
2015-May-20 02:31N 52°28' E 004°35'0 0.0
2015-May-20 01:31N 52°28' E 004°35'0 0.0
2015-May-20 00:31N 52°28' E 004°35'0 0.0
2015-May-19 23:31N 52°28' E 004°35'0 0.0
2015-May-19 22:25N 52°28' E 004°35'0 0.0
2015-May-19 21:31N 52°28' E 004°35'0 0.0
2015-May-19 20:31N 52°28' E 004°35'0 0.0
2015-May-19 19:31N 52°28' E 004°35'0 0.0
2015-May-19 18:31N 52°28' E 004°35'0 0.0
2015-May-19 17:31N 52°28' E 004°35'0 0.0
2015-May-19 16:25N 52°28' E 004°35'0 0.0
2015-May-19 15:25N 52°28' E 004°35'0 0.0
2015-May-19 14:28N 52°28' E 004°35'0 0.0
2015-May-19 13:22N 52°28' E 004°35'0 0.0
2015-May-19 12:28N 52°28' E 004°35'0 0.0
2015-May-19 11:28N 52°28' E 004°35'0 0.0
2015-May-19 10:33N 52°28' E 004°35'9 8.5
2015-May-19 09:33N 52°28' E 004°21'1612.5
2015-May-19 08:15N 52°39' E 004°01'5911.4
2015-May-19 03:07N 53°31' E 004°48'814.1
2015-May-19 02:33N 53°33' E 005°01'1514.9
2015-May-19 01:33N 53°38' E 005°24'1514.7
2015-May-19 00:33N 53°43' E 005°48'5213.0
2015-May-18 20:34N 53°57' E 007°13'1212.2
2015-May-18 19:33N 54°00' E 007°33'1313.1
2015-May-18 18:33N 54°02' E 007°55'1414.0
2015-May-18 17:33N 54°00' E 008°19'1616.2
2015-May-18 16:33N 53°53' E 008°43'1515.1
2015-May-18 15:33N 53°53' E 009°09'1211.9
2015-May-18 14:33N 53°45' E 009°24'1212.4
2015-May-18 13:33N 53°35' E 009°37'1010.4
2015-May-18 12:33N 53°33' E 009°54'3 2.6
2015-May-18 11:24N 53°33' E 009°59'0 0.0
2015-May-18 10:24N 53°33' E 009°59'0 0.0
2015-May-18 09:24N 53°33' E 009°59'0 0.0
2015-May-18 08:27N 53°33' E 009°59'0 0.0
2015-May-18 07:16N 53°33' E 009°59'0 0.0
2015-May-18 06:17N 53°33' E 009°59'0 0.0
2015-May-18 04:08N 53°33' E 009°59'0 0.0
2015-May-18 02:32N 53°33' E 009°59'0 0.0
2015-May-18 01:30N 53°33' E 009°59'0 0.0
2015-May-18 00:30N 53°33' E 009°59'0 0.0
2015-May-17 23:24N 53°33' E 009°59'0 0.0
2015-May-17 22:30N 53°33' E 009°59'0 0.0
2015-May-17 21:24N 53°33' E 009°59'0 0.3
2015-May-17 20:33N 53°33' E 009°58'0 0.0
2015-May-17 19:33N 53°33' E 009°58'0 0.3
2015-May-17 18:31N 53°33' E 009°59'0 0.0
2015-May-17 17:33N 53°33' E 009°59'0 0.0
2015-May-17 16:34N 53°33' E 009°59'0 0.0
2015-May-17 15:33N 53°33' E 009°59'0 0.0
2015-May-17 14:34N 53°33' E 009°59'0 0.0
2015-May-17 13:34N 53°33' E 009°59'0 0.0
2015-May-17 12:34N 53°33' E 009°59'0 0.0
2015-May-17 11:31N 53°33' E 009°59'0 0.0
2015-May-17 10:31N 53°33' E 009°59'0 0.0
2015-May-17 09:30N 53°33' E 009°59'0 0.0
2015-May-17 08:30N 53°33' E 009°59'0 0.0
2015-May-17 05:06N 53°33' E 009°59'1 2.2
2015-May-17 04:30N 53°32' E 010°00'0 0.0
2015-May-17 03:07N 53°32' E 010°00'0 0.0
2015-May-17 01:32N 53°32' E 010°00'0 0.0
2015-May-17 00:32N 53°32' E 010°00'0 0.0
2015-May-16 23:26N 53°32' E 010°00'0 0.0
2015-May-16 22:32N 53°32' E 010°00'0 0.0
2015-May-16 21:23N 53°32' E 010°00'0 0.0
2015-May-16 20:32N 53°32' E 010°00'0 0.0
2015-May-16 19:29N 53°32' E 010°00'0 0.0
2015-May-16 18:23N 53°32' E 010°00'0 0.0
2015-May-16 17:29N 53°32' E 010°00'0 0.0
2015-May-16 16:32N 53°32' E 010°00'0 0.0
2015-May-16 15:29N 53°32' E 010°00'0 0.0
2015-May-16 14:11N 53°32' E 010°00'0 0.0
2015-May-16 13:17N 53°32' E 010°00'0 0.0
2015-May-16 12:32N 53°32' E 010°00'0 0.0
2015-May-16 11:29N 53°32' E 010°00'0 0.0
2015-May-16 10:32N 53°32' E 010°00'0 0.0
2015-May-16 09:32N 53°32' E 010°00'0 0.0
2015-May-16 08:32N 53°32' E 010°00'0 0.0
2015-May-16 07:25N 53°32' E 010°00'0 0.0
2015-May-16 06:19N 53°32' E 010°00'0 0.0
2015-May-16 05:31N 53°32' E 010°00'1 0.8
2015-May-16 04:33N 53°32' E 009°59'8 8.1
2015-May-16 03:33N 53°34' E 009°46'1110.7
2015-May-16 02:33N 53°39' E 009°31'1212.2
2015-May-16 01:33N 53°50' E 009°21'1010.3
2015-May-16 00:34N 53°52' E 009°04'1312.6
2015-May-15 23:33N 53°53' E 008°42'1312.7
2015-May-15 22:31N 53°59' E 008°22'15 6.5
2015-May-15 20:08N 53°58' E 007°56'2 3.8
2015-May-15 19:33N 53°57' E 007°53'4 4.2
2015-May-15 18:33N 53°56' E 007°45'1313.0
2015-May-15 17:33N 53°53' E 007°24'1715.9
2015-May-15 16:31N 53°50' E 006°57'2115.4
2015-May-15 15:08N 53°45' E 006°21'915.0
2015-May-15 14:31N 53°42' E 006°07'1414.5
2015-May-15 13:33N 53°38' E 005°44'1414.0
2015-May-15 12:33N 53°33' E 005°22'1413.5
2015-May-15 11:33N 53°29' E 005°00'1212.3
2015-May-15 10:33N 53°23' E 004°42'1312.7
2015-May-15 09:31N 53°11' E 004°33'1212.7
2015-May-15 08:33N 53°00' E 004°22'1312.7
2015-May-15 07:33N 52°49' E 004°13'1312.8
2015-May-15 06:33N 52°40' E 003°59'1312.9
2015-May-15 05:33N 52°30' E 003°44'  
Track history (hours):
 
Tides and Currents Weather Stations Pressure Air Temp Water Temp Dewpoint Dewpoint Depression Visibility Wind Speed Wind Dir Waves Ship Positions

Spirit Of Oceanus

Last reported at 2015-May-25 05:21 UTC. Time now 2015-May-25 15:39 UTC.
Position N 61°03' W 004°45'.

Type: Passenger vessel. MMSI: 309224000.

Date/timePositionNaut miles runAvg speedWind from/ knotsBaromVisibWave heightAir tempDewpointWater temp
2015-May-25 05:21N 61°03' W 004°45'911.6
2015-May-25 04:33N 60°57' W 004°31'1312.1
2015-May-25 03:30N 60°48' W 004°12'118 5.1
2015-May-24 04:14N 59°03' W 002°27'1 0.3
2015-May-24 01:27N 59°04' W 002°27'1 0.5
2015-May-23 22:33N 59°03' W 002°28'7 7.1
2015-May-23 21:33N 59°00' W 002°41'6 6.0
2015-May-23 20:33N 59°01' W 002°52'3 3.1
2015-May-23 19:31N 58°59' W 002°58'0 0.0
2015-May-23 18:31N 58°59' W 002°58'0 0.0
2015-May-23 17:31N 58°59' W 002°58'0 0.0
2015-May-23 16:31N 58°59' W 002°58'0 0.0
2015-May-23 15:31N 58°59' W 002°58'0 0.0
2015-May-23 14:31N 58°59' W 002°58'0 0.0
2015-May-23 13:31N 58°59' W 002°58'0 0.0
2015-May-23 12:34N 58°59' W 002°58'1 0.7
2015-May-23 11:31N 59°00' W 002°58'9 9.5
2015-May-23 10:33N 58°60' W 002°40'8213.6
2015-May-23 04:33N 57°45' W 001°36'1312.8
2015-May-23 03:33N 57°32' W 001°36'1312.9
2015-May-23 02:33N 57°20' W 001°35'153 4.0
2015-May-21 12:20N 54°55' W 000°02'8 9.0
2015-May-21 11:30N 54°50' E 000°08'8 8.8
2015-May-21 10:34N 54°45' E 000°19'9 8.7
2015-May-21 09:33N 54°39' E 000°30'9 8.6
2015-May-21 08:32N 54°34' E 000°42'8 8.4
2015-May-21 07:33N 54°28' E 000°52'16011.4
2015-May-20 17:29N 52°31' E 003°56'1111.9
2015-May-20 16:33N 52°31' E 004°14'10 9.9
2015-May-20 15:34N 52°28' E 004°30'3 3.1
2015-May-20 14:31N 52°28' E 004°35'0 0.0
2015-May-20 13:25N 52°28' E 004°35'0 0.0
2015-May-20 12:31N 52°28' E 004°35'0 0.0
2015-May-20 11:25N 52°28' E 004°35'0 0.0
2015-May-20 10:31N 52°28' E 004°35'0 0.0
2015-May-20 09:31N 52°28' E 004°35'0 0.0
2015-May-20 08:28N 52°28' E 004°35'0 0.0
2015-May-20 07:31N 52°28' E 004°35'0 0.0
2015-May-20 06:31N 52°28' E 004°35'0 0.0
2015-May-20 05:28N 52°28' E 004°35'0 0.0
2015-May-20 04:31N 52°28' E 004°35'0 0.0
2015-May-20 03:31N 52°28' E 004°35'0 0.0
2015-May-20 02:31N 52°28' E 004°35'0 0.0
2015-May-20 01:31N 52°28' E 004°35'0 0.0
2015-May-20 00:31N 52°28' E 004°35'0 0.0
2015-May-19 23:31N 52°28' E 004°35'0 0.0
2015-May-19 22:25N 52°28' E 004°35'0 0.0
2015-May-19 21:31N 52°28' E 004°35'0 0.0
2015-May-19 20:31N 52°28' E 004°35'0 0.0
2015-May-19 19:31N 52°28' E 004°35'0 0.0
2015-May-19 18:31N 52°28' E 004°35'0 0.0
2015-May-19 17:31N 52°28' E 004°35'0 0.0
2015-May-19 16:25N 52°28' E 004°35'0 0.0
2015-May-19 15:25N 52°28' E 004°35'0 0.0
2015-May-19 14:28N 52°28' E 004°35'0 0.0
2015-May-19 13:22N 52°28' E 004°35'0 0.0
2015-May-19 12:28N 52°28' E 004°35'0 0.0
2015-May-19 11:28N 52°28' E 004°35'0 0.0
2015-May-19 10:33N 52°28' E 004°35'9 8.5
2015-May-19 09:33N 52°28' E 004°21'1612.5
2015-May-19 08:15N 52°39' E 004°01'5911.4
2015-May-19 03:07N 53°31' E 004°48'814.1
2015-May-19 02:33N 53°33' E 005°01'1514.9
2015-May-19 01:33N 53°38' E 005°24'1514.7
2015-May-19 00:33N 53°43' E 005°48'5213.0
2015-May-18 20:34N 53°57' E 007°13'1212.2
2015-May-18 19:33N 54°00' E 007°33'1313.1
2015-May-18 18:33N 54°02' E 007°55'1414.0
2015-May-18 17:33N 54°00' E 008°19'1616.2
2015-May-18 16:33N 53°53' E 008°43'1515.1
2015-May-18 15:33N 53°53' E 009°09'1211.9
2015-May-18 14:33N 53°45' E 009°24'1212.4
2015-May-18 13:33N 53°35' E 009°37'1010.4
2015-May-18 12:33N 53°33' E 009°54'3 2.6
2015-May-18 11:24N 53°33' E 009°59'0 0.0
2015-May-18 10:24N 53°33' E 009°59'0 0.0
2015-May-18 09:24N 53°33' E 009°59'0 0.0
2015-May-18 08:27N 53°33' E 009°59'0 0.0
2015-May-18 07:16N 53°33' E 009°59'0 0.0
2015-May-18 06:17N 53°33' E 009°59'0 0.0
2015-May-18 04:08N 53°33' E 009°59'0 0.0
2015-May-18 02:32N 53°33' E 009°59'0 0.0
2015-May-18 01:30N 53°33' E 009°59'0 0.0
2015-May-18 00:30N 53°33' E 009°59'0 0.0
2015-May-17 23:24N 53°33' E 009°59'0 0.0
2015-May-17 22:30N 53°33' E 009°59'0 0.0
2015-May-17 21:24N 53°33' E 009°59'0 0.3
2015-May-17 20:33N 53°33' E 009°58'0 0.0
2015-May-17 19:33N 53°33' E 009°58'0 0.3
2015-May-17 18:31N 53°33' E 009°59'0 0.0
2015-May-17 17:33N 53°33' E 009°59'0 0.0
2015-May-17 16:34N 53°33' E 009°59'0 0.0
2015-May-17 15:33N 53°33' E 009°59'0 0.0
2015-May-17 14:34N 53°33' E 009°59'0 0.0
2015-May-17 13:34N 53°33' E 009°59'0 0.0
2015-May-17 12:34N 53°33' E 009°59'0 0.0
2015-May-17 11:31N 53°33' E 009°59'0 0.0
2015-May-17 10:31N 53°33' E 009°59'0 0.0
2015-May-17 09:30N 53°33' E 009°59'0 0.0
2015-May-17 08:30N 53°33' E 009°59'0 0.0
2015-May-17 05:06N 53°33' E 009°59'1 2.2
2015-May-17 04:30N 53°32' E 010°00'0 0.0
2015-May-17 03:07N 53°32' E 010°00'0 0.0
2015-May-17 01:32N 53°32' E 010°00'0 0.0
2015-May-17 00:32N 53°32' E 010°00'0 0.0
2015-May-16 23:26N 53°32' E 010°00'0 0.0
2015-May-16 22:32N 53°32' E 010°00'0 0.0
2015-May-16 21:23N 53°32' E 010°00'0 0.0
2015-May-16 20:32N 53°32' E 010°00'0 0.0
2015-May-16 19:29N 53°32' E 010°00'0 0.0
2015-May-16 18:23N 53°32' E 010°00'0 0.0
2015-May-16 17:29N 53°32' E 010°00'0 0.0
2015-May-16 16:32N 53°32' E 010°00'0 0.0
2015-May-16 15:29N 53°32' E 010°00'0 0.0
2015-May-16 14:11N 53°32' E 010°00'0 0.0
2015-May-16 13:17N 53°32' E 010°00'0 0.0
2015-May-16 12:32N 53°32' E 010°00'0 0.0
2015-May-16 11:29N 53°32' E 010°00'0 0.0
2015-May-16 10:32N 53°32' E 010°00'0 0.0
2015-May-16 09:32N 53°32' E 010°00'0 0.0
2015-May-16 08:32N 53°32' E 010°00'0 0.0
2015-May-16 07:25N 53°32' E 010°00'0 0.0
2015-May-16 06:19N 53°32' E 010°00'0 0.0
2015-May-16 05:31N 53°32' E 010°00'1 0.8
2015-May-16 04:33N 53°32' E 009°59'8 8.1
2015-May-16 03:33N 53°34' E 009°46'1110.7
2015-May-16 02:33N 53°39' E 009°31'1212.2
2015-May-16 01:33N 53°50' E 009°21'1010.3
2015-May-16 00:34N 53°52' E 009°04'1312.6
2015-May-15 23:33N 53°53' E 008°42'1312.7
2015-May-15 22:31N 53°59' E 008°22'15 6.5
2015-May-15 20:08N 53°58' E 007°56'2 3.8
2015-May-15 19:33N 53°57' E 007°53'4 4.2
2015-May-15 18:33N 53°56' E 007°45'1313.0
2015-May-15 17:33N 53°53' E 007°24'1715.9
2015-May-15 16:31N 53°50' E 006°57'2115.4
2015-May-15 15:08N 53°45' E 006°21'915.0
2015-May-15 14:31N 53°42' E 006°07'1414.5
2015-May-15 13:33N 53°38' E 005°44'1414.0
2015-May-15 12:33N 53°33' E 005°22'1413.5
2015-May-15 11:33N 53°29' E 005°00'1212.3
2015-May-15 10:33N 53°23' E 004°42'1312.7
2015-May-15 09:31N 53°11' E 004°33'1212.7
2015-May-15 08:33N 53°00' E 004°22'1312.7
2015-May-15 07:33N 52°49' E 004°13'1312.8
2015-May-15 06:33N 52°40' E 003°59'1312.9
2015-May-15 05:33N 52°30' E 003°44'  

Dump ship's entire track history